Time;durP1;ratioP1;P1;durP2;ratioP2;P2;SDS_P1;SDS_P2;PMS_P1;PMS_P2;Temp;Humidity;BMP_temperature;BMP_pressure;BME280_temperature;BME280_humidity;BME280_pressure;Samples;Min_cycle;Max_cycle;Signal;HPM_P1;HPM_P2
2021/06/11 16:03:18;;;;;;;17.37;6.80;;;;;;;22.38;37.36;98806.27;125668;1093;103026;-79
2021/06/11 16:05:47;;;;;;;9.87;3.93;;;;;;;22.32;37.33;98802.47;125623;1093;102913;-79
2021/06/11 16:08:15;;;;;;;7.03;3.00;;;;;;;22.26;37.28;98800.53;125597;1093;103015;-81
2021/06/11 16:10:45;;;;;;;7.80;3.13;;;;;;;22.27;37.34;98800.33;125577;1093;103026;-76
2021/06/11 16:13:13;;;;;;;6.77;3.40;;;;;;;22.25;37.28;98796.15;125604;1093;103413;-80
2021/06/11 16:15:42;;;;;;;6.33;3.27;;;;;;;22.18;38.03;98797.95;125489;1093;103225;-78
2021/06/11 16:18:10;;;;;;;8.10;3.47;;;;;;;22.15;37.39;98801.91;125592;1093;103009;-74
2021/06/11 16:20:38;;;;;;;7.67;3.37;;;;;;;22.11;37.74;98787.06;125595;1092;103087;-78
2021/06/11 16:23:07;;;;;;;6.73;3.30;;;;;;;22.06;37.89;98800.34;125542;1093;102906;-78
2021/06/11 16:25:35;;;;;;;5.80;3.10;;;;;;;22.05;38.36;98796.78;125357;1092;103155;-76
2021/06/11 16:28:04;;;;;;;7.20;3.13;;;;;;;22.04;38.19;98795.10;125459;1092;102911;-77
2021/06/11 16:30:32;;;;;;;7.07;3.30;;;;;;;22.03;38.44;98798.84;125462;1093;103069;-76
2021/06/11 16:33:01;;;;;;;7.23;3.40;;;;;;;22.01;38.39;98798.20;125329;1093;102916;-74
2021/06/11 16:35:29;;;;;;;7.57;3.27;;;;;;;21.99;38.22;98792.16;125329;1093;103006;-75
2021/06/11 16:37:58;;;;;;;7.93;4.03;;;;;;;21.97;38.33;98803.17;125552;1091;103004;-79
2021/06/11 16:40:41;;;;;;;10.70;5.00;;;;;;;21.95;38.87;98797.11;125530;1092;102936;-78
2021/06/11 16:43:10;;;;;;;10.57;4.63;;;;;;;21.93;38.91;98799.17;126915;1093;102168;-78
2021/06/11 16:45:42;;;;;;;9.27;3.97;;;;;;;21.93;38.63;98793.75;125563;1093;103175;-80
2021/06/11 16:48:12;;;;;;;7.77;3.73;;;;;;;21.93;39.05;98795.64;125679;1093;102981;-77
2021/06/11 16:50:41;;;;;;;9.50;4.43;;;;;;;21.91;38.85;98786.86;125536;1092;102951;-79
2021/06/11 16:53:10;;;;;;;9.97;4.10;;;;;;;21.91;39.49;98794.98;125597;1093;103431;-77
2021/06/11 16:55:38;;;;;;;10.73;4.57;;;;;;;21.92;39.53;98791.25;125675;1092;102909;-75
2021/06/11 16:58:06;;;;;;;11.27;4.07;;;;;;;21.95;39.28;98788.16;125625;1092;103034;-76
2021/06/11 17:00:36;;;;;;;10.47;4.20;;;;;;;21.94;39.43;98795.43;125659;1093;103048;-79
2021/06/11 17:03:04;;;;;;;16.33;4.40;;;;;;;21.92;39.59;98799.38;125711;1092;103429;-77
2021/06/11 17:05:33;;;;;;;21.07;7.97;;;;;;;21.91;39.76;98808.52;125512;1093;103010;-78
2021/06/11 17:08:02;;;;;;;16.87;5.57;;;;;;;21.84;39.97;98803.02;125451;1093;103033;-78
2021/06/11 17:10:31;;;;;;;12.00;5.07;;;;;;;21.81;39.84;98811.52;125563;1093;102990;-77
2021/06/11 17:13:00;;;;;;;10.37;4.80;;;;;;;21.79;39.99;98805.48;125644;1093;102911;-78
2021/06/11 17:15:29;;;;;;;10.10;3.90;;;;;;;21.77;40.25;98812.95;125586;1093;102927;-78
2021/06/11 17:17:58;;;;;;;10.73;4.13;;;;;;;21.73;39.97;98808.95;125579;1093;103090;-78
2021/06/11 17:20:30;;;;;;;8.37;4.27;;;;;;;21.69;40.33;98817.45;125640;1093;102937;-77
2021/06/11 17:23:03;;;;;;;11.70;4.20;;;;;;;21.64;40.54;98809.05;125639;1093;103164;-76
2021/06/11 17:25:37;;;;;;;6.37;3.97;;;;;;;21.62;40.37;98818.38;125380;1093;103006;-78
2021/06/11 17:28:27;;;;;;;9.67;3.80;;;;;;;21.60;40.75;98809.61;125679;1093;102959;-79
2021/06/11 17:31:10;;;;;;;10.20;3.97;;;;;;;21.58;40.56;98811.66;125639;1092;102915;-77
2021/06/11 17:33:44;;;;;;;7.93;4.45;;;;;;;21.51;40.84;98811.56;125676;1093;103005;-78
2021/06/11 17:36:19;;;;;;;8.83;4.03;;;;;;;21.50;40.80;98820.70;125682;1093;102938;-76
2021/06/11 17:38:51;;;;;;;6.07;3.80;;;;;;;21.47;40.96;98815.66;125669;1093;102998;-75
2021/06/11 17:41:24;;;;;;;7.97;3.73;;;;;;;21.45;40.86;98815.02;125689;1093;102738;-75
2021/06/11 17:44:08;;;;;;;9.50;3.93;;;;;;;21.42;40.96;98819.77;125656;1091;103073;-76
2021/06/11 17:46:37;;;;;;;8.83;4.23;;;;;;;21.40;41.21;98821.00;125678;1093;102936;-75
2021/06/11 17:49:07;;;;;;;8.93;4.20;;;;;;;21.36;41.24;98825.96;125733;1093;102945;-75
2021/06/11 17:51:37;;;;;;;11.50;4.53;;;;;;;21.35;41.29;98816.17;125740;1091;103000;-76
2021/06/11 17:54:10;;;;;;;10.30;4.50;;;;;;;21.32;41.30;98823.80;125623;1093;103000;-77
2021/06/11 17:56:59;;;;;;;11.70;4.57;;;;;;;21.27;41.56;98817.08;125681;1093;103106;-77
2021/06/11 17:59:34;;;;;;;15.03;5.47;;;;;;;21.25;41.73;98821.84;125675;1092;102998;-78
2021/06/11 18:02:14;;;;;;;14.47;4.93;;;;;;;21.24;41.69;98822.86;125621;1093;102993;-77
2021/06/11 18:04:47;;;;;;;11.67;4.93;;;;;;;21.20;41.77;98829.67;125706;1093;103031;-74
2021/06/11 18:07:23;;;;;;;19.40;5.67;;;;;;;21.20;41.90;98832.38;125707;1093;102927;-69
2021/06/11 18:09:58;;;;;;;12.40;5.37;;;;;;;21.17;41.98;98831.92;125622;1092;103200;-68
2021/06/11 18:12:28;;;;;;;15.43;6.90;;;;;;;21.13;42.31;98842.28;125701;1093;103061;-68
2021/06/11 18:15:08;;;;;;;15.53;5.73;;;;;;;21.10;42.57;98839.95;125721;1093;103416;-70
2021/06/11 18:17:41;;;;;;;22.80;7.20;;;;;;;21.07;42.14;98840.31;125650;1093;103064;-68
2021/06/11 18:20:25;;;;;;;20.40;6.93;;;;;;;21.04;42.40;98840.69;125660;1093;103062;-67
2021/06/11 18:22:55;;;;;;;17.77;6.67;;;;;;;21.01;42.47;98833.77;125640;1093;102939;-69
2021/06/11 18:25:28;;;;;;;20.50;6.40;;;;;;;21.00;42.48;98848.31;125665;1093;103339;-69
2021/06/11 18:28:17;;;;;;;22.60;8.27;;;;;;;20.98;42.56;98842.28;125626;1091;103418;-69
2021/06/11 18:30:46;;;;;;;24.80;9.80;;;;;;;20.96;42.78;98844.33;125703;1093;103062;-69
2021/06/11 18:33:22;;;;;;;25.10;9.05;;;;;;;20.95;42.85;98848.88;125643;1093;102936;-67
2021/06/11 18:35:51;;;;;;;27.17;11.63;;;;;;;20.93;42.85;98856.33;125599;1093;102994;-68
2021/06/11 18:38:20;;;;;;;35.03;14.80;;;;;;;20.91;43.08;98855.67;125612;1093;103073;-69
2021/06/11 18:40:48;;;;;;;32.93;16.57;;;;;;;20.90;43.28;98850.46;125582;1092;102936;-69
2021/06/11 18:43:20;;;;;;;41.23;17.00;;;;;;;20.88;43.27;98858.73;125635;1093;103456;-69
2021/06/11 18:45:58;;;;;;;33.63;15.05;;;;;;;20.86;43.44;98860.78;125677;1093;102920;-67
2021/06/11 18:51:09;;;;;;;29.03;11.17;;;;;;;20.83;43.54;98861.15;125655;1093;103003;-69
2021/06/11 18:53:44;;;;;;;25.20;10.37;;;;;;;20.81;43.61;98874.00;125619;1092;102939;-69
2021/06/11 18:56:13;;;;;;;23.33;9.60;;;;;;;20.80;43.76;98861.52;125661;1093;103064;-69
2021/06/11 18:58:48;;;;;;;23.87;8.30;;;;;;;20.79;43.76;98868.80;125695;1092;103096;-70
2021/06/11 19:01:31;;;;;;;19.97;7.60;;;;;;;20.76;43.85;98863.72;125634;1093;103054;-70
2021/06/11 19:04:10;;;;;;;18.78;7.00;;;;;;;20.73;44.16;98864.09;125658;1093;103058;-68
2021/06/11 19:07:04;;;;;;;16.73;6.07;;;;;;;20.72;44.17;98865.11;125700;1093;102916;-70
2021/06/11 19:09:35;;;;;;;13.60;6.03;;;;;;;20.71;44.30;98870.70;125674;1093;102949;-70
2021/06/11 19:12:07;;;;;;;13.87;6.17;;;;;;;20.70;44.22;98861.75;125640;1093;103093;-70
2021/06/11 19:14:38;;;;;;;14.55;6.70;;;;;;;20.67;44.36;98862.11;125606;1093;102938;-69
2021/06/11 19:17:09;;;;;;;17.37;6.80;;;;;;;20.66;44.37;98863.98;125807;1092;103054;-69
2021/06/11 19:19:41;;;;;;;18.53;6.77;;;;;;;20.65;44.42;98865.01;125677;1093;102924;-71
2021/06/11 19:22:20;;;;;;;18.07;7.37;;;;;;;20.65;44.52;98869.55;125663;1093;103010;-69
2021/06/11 19:24:56;;;;;;;18.83;7.80;;;;;;;20.62;44.81;98875.32;125635;1093;103065;-72
2021/06/11 19:27:29;;;;;;;18.43;7.43;;;;;;;20.59;44.80;98875.68;125626;1093;102911;-71
2021/06/11 19:30:13;;;;;;;17.80;7.60;;;;;;;20.57;44.83;98869.65;125691;1093;103157;-72
2021/06/11 19:32:53;;;;;;;18.27;7.67;;;;;;;20.53;44.89;98871.85;125645;1093;102948;-72
2021/06/11 19:35:41;;;;;;;17.60;7.47;;;;;;;20.45;44.90;98875.47;125652;1093;103025;-71
2021/06/11 19:38:38;;;;;;;16.68;6.93;;;;;;;20.41;44.99;98875.98;125717;1093;103441;-71
2021/06/11 19:41:09;;;;;;;15.73;6.43;;;;;;;20.33;45.27;98875.05;125606;1093;103451;-72
2021/06/11 19:43:44;;;;;;;15.70;6.17;;;;;;;20.32;45.23;98873.38;125687;1092;103007;-71
2021/06/11 19:46:23;;;;;;;12.67;6.10;;;;;;;20.32;45.21;98875.22;125661;1093;102937;-72
2021/06/11 19:49:13;;;;;;;12.73;6.10;;;;;;;20.31;45.45;98874.39;125708;1093;102933;-74
2021/06/11 19:51:47;;;;;;;16.87;6.40;;;;;;;20.28;45.70;98873.89;125712;1093;102937;-71
2021/06/11 19:54:18;;;;;;;13.40;5.90;;;;;;;20.26;45.57;98873.23;125631;1093;103126;-71
2021/06/11 19:56:48;;;;;;;13.70;6.10;;;;;;;20.17;45.63;98873.31;125697;1093;102940;-72
2021/06/11 19:59:20;;;;;;;14.90;6.35;;;;;;;20.04;45.70;98873.87;125701;1093;102916;-73
2021/06/11 20:01:48;;;;;;;14.40;6.47;;;;;;;19.96;45.58;98875.78;125706;1093;102939;-74
2021/06/11 20:04:20;;;;;;;20.33;6.70;;;;;;;19.86;45.93;98879.50;125703;1093;102991;-73
2021/06/11 20:06:49;;;;;;;13.63;6.10;;;;;;;19.77;46.01;98873.31;125650;1093;103244;-73
2021/06/11 20:09:19;;;;;;;13.43;6.03;;;;;;;19.74;46.09;98876.36;125663;1093;103633;-73
2021/06/11 20:11:48;;;;;;;14.90;6.37;;;;;;;19.69;46.42;98876.05;125648;1093;102991;-72
2021/06/11 20:14:16;;;;;;;11.87;5.80;;;;;;;19.67;46.33;98874.55;125691;1093;103032;-72
2021/06/11 20:16:45;;;;;;;15.60;6.53;;;;;;;19.62;46.16;98870.52;125683;1092;103039;-73
2021/06/11 20:19:13;;;;;;;16.50;6.90;;;;;;;19.54;46.42;98870.55;125656;1093;103032;-72
2021/06/11 20:21:42;;;;;;;13.27;6.27;;;;;;;19.52;46.56;98869.05;125709;1093;103004;-72
2021/06/11 20:24:15;;;;;;;18.00;7.00;;;;;;;19.48;46.63;98871.23;125673;1091;102919;-72
2021/06/11 20:26:47;;;;;;;16.77;6.77;;;;;;;19.45;46.65;98869.75;125760;1092;102932;-72
2021/06/11 20:29:15;;;;;;;19.07;6.43;;;;;;;19.42;46.86;98870.09;125734;1093;103000;-72
2021/06/11 20:31:44;;;;;;;16.43;7.07;;;;;;;19.43;47.22;98868.22;125725;1093;103153;-72
2021/06/11 20:34:12;;;;;;;18.03;7.70;;;;;;;19.42;47.27;98858.45;125696;1093;103012;-74
2021/06/11 20:36:41;;;;;;;15.97;6.90;;;;;;;19.39;47.28;98866.88;125671;1092;103061;-71
2021/06/11 20:39:09;;;;;;;18.03;7.67;;;;;;;19.35;47.30;98861.01;125682;1093;102916;-74
2021/06/11 20:41:38;;;;;;;19.73;8.07;;;;;;;19.29;47.39;98862.55;125685;1093;102911;-74
2021/06/11 20:44:06;;;;;;;17.73;7.00;;;;;;;19.23;47.14;98859.69;125660;1093;102908;-73
2021/06/11 20:46:35;;;;;;;18.17;6.87;;;;;;;19.19;47.40;98868.13;125686;1094;102980;-75
2021/06/11 20:49:04;;;;;;;19.07;7.73;;;;;;;19.15;47.49;98866.81;125661;1093;102937;-74
2021/06/11 20:51:35;;;;;;;15.55;6.95;;;;;;;19.15;47.47;98868.65;125625;1092;102948;-70
2021/06/11 20:54:03;;;;;;;15.60;7.63;;;;;;;19.14;47.58;98856.19;125588;1093;102971;-72
2021/06/11 20:56:32;;;;;;;17.77;7.10;;;;;;;19.13;47.69;98870.67;125578;1095;102916;-73
2021/06/11 20:59:00;;;;;;;17.73;7.30;;;;;;;19.09;47.93;98862.10;125679;1093;103001;-71
2021/06/11 21:01:29;;;;;;;14.80;6.17;;;;;;;19.07;47.77;98866.82;125551;1091;102927;-73
2021/06/11 21:03:58;;;;;;;17.30;7.07;;;;;;;19.04;47.98;98865.30;125606;1093;102913;-70
2021/06/11 21:06:26;;;;;;;17.23;6.60;;;;;;;19.00;47.92;98866.64;125620;1093;103120;-70
2021/06/11 21:08:55;;;;;;;16.17;7.03;;;;;;;18.97;48.13;98868.85;125624;1093;103202;-71
2021/06/11 21:11:25;;;;;;;15.95;6.60;;;;;;;18.93;48.55;98859.39;125684;1093;103044;-72
2021/06/11 21:13:54;;;;;;;16.80;7.23;;;;;;;18.88;48.13;98868.83;125651;1093;103122;-72
2021/06/11 21:16:24;;;;;;;19.53;8.80;;;;;;;18.83;48.32;98860.41;125671;1093;103012;-71
2021/06/11 21:18:53;;;;;;;18.77;7.90;;;;;;;18.81;48.34;98864.30;125706;1093;104538;-72
2021/06/11 21:21:21;;;;;;;18.33;8.00;;;;;;;18.77;48.87;98862.95;125609;1093;103010;-71
2021/06/11 21:23:50;;;;;;;15.47;7.60;;;;;;;18.73;48.55;98863.29;125682;1093;103068;-70
2021/06/11 21:26:20;;;;;;;20.07;8.07;;;;;;;18.70;48.57;98858.23;125632;1093;103028;-69
2021/06/11 21:28:48;;;;;;;17.37;8.17;;;;;;;18.67;48.81;98865.83;125702;1093;103034;-70
2021/06/11 21:31:16;;;;;;;20.53;8.53;;;;;;;18.64;49.10;98864.30;125725;1092;103029;-69
2021/06/11 21:33:45;;;;;;;18.47;8.57;;;;;;;18.59;49.04;98859.42;125667;1093;103429;-70
2021/06/11 21:36:13;;;;;;;19.67;8.97;;;;;;;18.55;49.24;98855.38;125726;1093;103121;-69
2021/06/11 21:38:42;;;;;;;20.75;8.70;;;;;;;18.53;49.47;98864.66;125658;1092;103051;-69
2021/06/11 21:41:12;;;;;;;18.93;8.07;;;;;;;18.47;49.14;98855.38;125712;1092;103033;-70
2021/06/11 21:43:42;;;;;;;17.80;8.13;;;;;;;18.43;49.67;98859.41;125710;1093;102927;-71
2021/06/11 21:46:11;;;;;;;19.13;9.00;;;;;;;18.38;49.28;98850.99;125655;1092;102944;-71
2021/06/11 21:48:39;;;;;;;20.17;9.87;;;;;;;18.34;49.36;98857.75;125751;1092;102909;-71
2021/06/11 21:51:07;;;;;;;18.13;8.87;;;;;;;18.30;49.94;98854.53;125657;1093;102925;-72
2021/06/11 21:53:40;;;;;;;20.67;9.00;;;;;;;18.29;49.74;98861.78;125687;1092;103098;-70
2021/06/11 21:56:14;;;;;;;20.20;9.45;;;;;;;18.28;49.86;98864.63;125686;1093;102937;-71
2021/06/11 21:58:45;;;;;;;22.53;9.98;;;;;;;18.24;50.14;98865.95;125645;1093;103034;-72
2021/06/11 22:01:14;;;;;;;19.57;8.83;;;;;;;18.21;49.90;98861.77;125713;1092;102934;-71
2021/06/11 22:03:43;;;;;;;20.13;9.67;;;;;;;18.17;50.39;98862.24;127724;1093;100707;-71
2021/06/11 22:06:11;;;;;;;21.57;9.40;;;;;;;18.13;50.36;98867.98;127700;1092;101786;-70
2021/06/11 22:08:40;;;;;;;22.27;10.33;;;;;;;18.14;50.24;98872.33;127751;1093;101556;-71
2021/06/11 22:11:09;;;;;;;22.60;9.93;;;;;;;18.13;50.18;98872.52;126006;1092;103004;-72
2021/06/11 22:13:37;;;;;;;19.57;9.27;;;;;;;18.10;50.32;98872.84;125860;1093;103386;-70
2021/06/11 22:16:06;;;;;;;19.67;10.03;;;;;;;18.06;50.43;98863.41;125596;1093;102942;-70
2021/06/11 22:18:35;;;;;;;21.70;11.20;;;;;;;18.00;50.44;98868.44;125692;1092;102942;-71
2021/06/11 22:21:07;;;;;;;20.87;9.93;;;;;;;17.94;50.44;98868.23;125728;1093;102914;-68
2021/06/11 22:23:37;;;;;;;21.85;10.75;;;;;;;17.85;51.08;98870.89;125652;1093;103036;-72
2021/06/11 22:26:06;;;;;;;20.43;9.67;;;;;;;17.81;50.74;98871.40;125697;1091;102913;-71
2021/06/11 22:28:35;;;;;;;22.30;10.23;;;;;;;17.77;50.83;98872.72;125627;1093;102953;-70
2021/06/11 22:31:04;;;;;;;21.33;10.30;;;;;;;17.73;51.23;98868.67;125663;1093;103044;-69
2021/06/11 22:33:34;;;;;;;20.30;9.93;;;;;;;17.66;51.19;98873.87;125646;1093;103088;-71
2021/06/11 22:36:07;;;;;;;20.20;10.63;;;;;;;17.61;51.25;98868.95;125647;1092;103039;-71
2021/06/11 22:38:41;;;;;;;20.80;10.50;;;;;;;17.57;51.40;98870.28;125608;1092;102946;-71
2021/06/11 22:41:13;;;;;;;19.60;9.60;;;;;;;17.52;51.51;98873.47;125657;1093;102973;-70
2021/06/11 22:43:43;;;;;;;22.37;9.70;;;;;;;17.44;51.36;98870.73;127778;1093;100639;-70
2021/06/11 22:46:11;;;;;;;20.90;9.00;;;;;;;17.39;51.89;98868.55;127736;1092;101411;-70
2021/06/11 22:48:40;;;;;;;21.03;10.13;;;;;;;17.38;51.69;98876.75;126202;1093;103041;-71
2021/06/11 22:51:08;;;;;;;20.87;9.77;;;;;;;17.36;51.88;98873.38;125621;1093;103412;-70
2021/06/11 22:53:37;;;;;;;20.33;9.63;;;;;;;17.32;52.13;98874.73;125596;1093;103009;-69
2021/06/11 22:56:10;;;;;;;20.43;9.00;;;;;;;17.31;52.26;98871.19;125691;1093;103009;-71
2021/06/11 22:58:41;;;;;;;18.88;8.83;;;;;;;17.31;52.18;98875.73;125729;1093;102942;-70
2021/06/11 23:01:11;;;;;;;18.93;9.33;;;;;;;17.29;52.45;98866.98;125622;1093;103039;-70
2021/06/11 23:03:40;;;;;;;17.17;8.40;;;;;;;17.26;52.37;98874.36;125702;1093;102938;-71
2021/06/11 23:06:10;;;;;;;19.00;9.53;;;;;;;17.23;52.68;98865.76;125685;1092;102997;-70
2021/06/11 23:08:40;;;;;;;20.30;8.73;;;;;;;17.19;52.47;98865.25;125751;1092;102940;-70
2021/06/11 23:11:08;;;;;;;18.93;8.37;;;;;;;17.16;52.52;98867.39;125684;1093;102978;-73
2021/06/11 23:13:36;;;;;;;17.47;8.70;;;;;;;17.09;52.70;98867.19;125677;1092;103088;-70
2021/06/11 23:16:05;;;;;;;18.93;8.83;;;;;;;17.05;52.88;98881.95;125672;1093;102913;-72
2021/06/11 23:18:33;;;;;;;17.77;8.50;;;;;;;17.01;52.93;98877.88;125676;1093;102931;-74
2021/06/11 23:21:03;;;;;;;18.53;9.40;;;;;;;16.98;52.83;98887.12;125691;1093;103064;-72
2021/06/11 23:23:33;;;;;;;20.47;8.67;;;;;;;16.97;53.00;98882.74;125701;1093;103030;-72
2021/06/11 23:26:01;;;;;;;20.67;9.07;;;;;;;16.94;53.04;98880.34;125628;1093;102891;-73
2021/06/11 23:28:29;;;;;;;17.77;9.13;;;;;;;16.90;53.50;98876.27;125687;1093;103015;-73
2021/06/11 23:30:58;;;;;;;19.53;10.07;;;;;;;16.86;53.40;98881.13;125648;1093;102935;-72
2021/06/11 23:33:27;;;;;;;18.10;9.63;;;;;;;16.80;53.64;98882.58;125686;1092;102946;-73
2021/06/11 23:35:55;;;;;;;22.20;10.40;;;;;;;16.75;53.29;98889.43;125718;1093;103064;-71
2021/06/11 23:38:25;;;;;;;19.50;9.83;;;;;;;16.67;53.50;98892.91;125666;1093;103024;-70
2021/06/11 23:40:54;;;;;;;20.40;10.23;;;;;;;16.60;53.64;98889.15;125631;1092;103008;-71
2021/06/11 23:43:23;;;;;;;18.63;9.60;;;;;;;16.52;53.91;98882.70;127719;1093;100865;-72
2021/06/11 23:45:51;;;;;;;19.80;10.40;;;;;;;16.50;53.81;98883.88;127773;1093;100696;-71
2021/06/11 23:48:19;;;;;;;19.13;10.23;;;;;;;16.49;53.84;98884.87;126283;1091;101444;-71
2021/06/11 23:50:48;;;;;;;19.07;9.93;;;;;;;16.47;54.14;98878.81;125647;1093;103002;-74
2021/06/11 23:53:16;;;;;;;21.13;11.20;;;;;;;16.47;54.12;98884.17;125711;1092;103058;-71
2021/06/11 23:55:44;;;;;;;21.77;10.67;;;;;;;16.44;54.33;98879.94;125665;1093;103061;-71
2021/06/11 23:58:13;;;;;;;20.67;10.10;;;;;;;16.42;54.37;98878.42;125702;1092;102944;-72
